SLVR/VVI METAR and TAF weather

Enter ICAO airport designator
Station Type Date Time Source
SLVR METAR 2019/10/21 05:00 UTC NOAA

SLVR 210500Z VRB02KT 9999 NSC 21/19 Q1011


Station Type Date Time Source
SLVR Decoded METAR 2019/10/21 05:00 UTC NOAA

Viru-Viru, Bolivia (SLVR) 17-38S 063-08W
Oct 21, 2019 - 01:00 AM EDT / 2019.10.21 0500 UTC
Wind: Variable at 2 MPH (2 KT):0
Visibility: greater than 7 mile(s):0
Temperature: 69 F (21 C)
Dew Point: 66 F (19 C)
Relative Humidity: 88%
Pressure (altimeter): 29.85 in. Hg (1011 hPa)
ob: SLVR 210500Z VRB02KT 9999 NSC 21/19 Q1011
cycle: 5

Station Type Date Time Source
SLVR TAF 2019/10/21 06:25 UTC NOAA

TAF SLVR 210345Z 2106/2206 VRB02KT 9999 SCT080 TX27/2120 TN20/2110Z
BECMG 2108/2110 18010KT SCT017 BKN070
BECMG 2115/2117 18015G25KT SCT020 BKN080
BECMG 2122/2124 16010KT NSC

Example: see airport list